Time;durP1;ratioP1;P1;durP2;ratioP2;P2;SDS_P1;SDS_P2;PMS_P1;PMS_P2;Temp;Humidity;BMP_temperature;BMP_pressure;BME280_temperature;BME280_humidity;BME280_pressure;Samples;Min_cycle;Max_cycle;Signal;HPM_P1;HPM_P2
2022/11/28 00:01:46;;;;;;;24.55;16.70;;;4.20;1.00;;;;;;6288988;22;20690;-82
2022/11/28 00:04:13;;;;;;;23.73;17.13;;;4.20;1.00;;;;;;6291835;22;20210;-82
2022/11/28 00:06:45;;;;;;;26.00;16.48;;;4.10;1.00;;;;;;6291403;22;20932;-80
2022/11/28 00:09:14;;;;;;;25.05;16.20;;;4.10;1.00;;;;;;6293276;22;20228;-80
2022/11/28 00:11:41;;;;;;;24.15;16.98;;;4.10;1.00;;;;;;6284823;22;20237;-83
2022/11/28 00:14:16;;;;;;;24.25;18.20;;;4.10;1.00;;;;;;6278879;22;20210;-82
2022/11/28 00:16:43;;;;;;;27.45;17.85;;;4.10;1.00;;;;;;6270846;22;20259;-82
2022/11/28 00:19:13;;;;;;;28.00;18.75;;;4.10;1.00;;;;;;6281538;22;20208;-83
2022/11/28 00:21:42;;;;;;;25.73;17.88;;;4.10;1.00;;;;;;6290503;22;20225;-80
2022/11/28 00:24:15;;;;;;;30.35;18.27;;;4.10;1.00;;;;;;6289235;22;20216;-80
2022/11/28 00:26:42;;;;;;;24.60;18.00;;;4.10;1.00;;;;;;6289853;22;20269;-79
2022/11/28 00:29:14;;;;;;;26.80;18.27;;;4.10;1.00;;;;;;6291344;22;20214;-80
2022/11/28 00:31:42;;;;;;;24.90;17.90;;;4.20;1.00;;;;;;6289418;22;20205;-79
2022/11/28 00:34:15;;;;;;;27.52;18.02;;;4.20;1.00;;;;;;6290246;22;20998;-78
2022/11/28 00:36:44;;;;;;;27.00;19.33;;;4.30;1.00;;;;;;6289816;22;20934;-80
2022/11/28 00:39:14;;;;;;;24.35;17.98;;;4.30;1.00;;;;;;6289376;22;20215;-81
2022/11/28 00:41:41;;;;;;;30.30;17.58;;;4.30;1.00;;;;;;6287252;22;20280;-81
2022/11/28 00:44:17;;;;;;;25.73;18.42;;;4.30;1.00;;;;;;6290373;22;20217;-81
2022/11/28 00:46:44;;;;;;;30.38;18.80;;;4.20;1.00;;;;;;6288591;22;20903;-83
2022/11/28 00:49:13;;;;;;;25.95;17.80;;;4.20;1.00;;;;;;6290875;22;20209;-83
2022/11/28 00:51:40;;;;;;;29.05;17.95;;;4.20;1.00;;;;;;6288607;22;20225;-81
2022/11/28 00:54:12;;;;;;;27.92;18.30;;;4.20;1.00;;;;;;6290675;22;20217;-81
2022/11/28 00:56:42;;;;;;;24.30;16.98;;;4.20;1.00;;;;;;6290007;22;20264;-83
2022/11/28 00:59:13;;;;;;;27.10;18.38;;;4.20;1.00;;;;;;6286096;22;20200;-81
2022/11/28 01:01:43;;;;;;;23.77;16.20;;;4.30;1.00;;;;;;6287257;22;20216;-82
2022/11/28 01:04:15;;;;;;;26.20;17.50;;;4.30;1.00;;;;;;6290458;22;20235;-80
2022/11/28 01:06:45;;;;;;;24.98;17.80;;;4.30;1.00;;;;;;6286886;22;20212;-81
2022/11/28 01:09:16;;;;;;;24.10;17.63;;;4.30;1.00;;;;;;6291339;22;20210;-79
2022/11/28 01:11:44;;;;;;;25.52;17.00;;;4.30;1.00;;;;;;6288204;22;20214;-80
2022/11/28 01:14:13;;;;;;;24.92;17.50;;;4.20;1.00;;;;;;6291226;22;20241;-83
2022/11/28 01:16:42;;;;;;;24.50;17.83;;;4.20;1.00;;;;;;6288477;22;20221;-82
2022/11/28 01:19:09;;;;;;;25.38;17.23;;;4.20;1.00;;;;;;6286322;22;20293;-79
2022/11/28 01:21:37;;;;;;;25.98;16.48;;;4.20;1.00;;;;;;6282735;22;21027;-81
2022/11/28 01:24:05;;;;;;;27.77;17.13;;;4.20;1.00;;;;;;6283495;22;20208;-80
2022/11/28 01:26:33;;;;;;;24.27;16.52;;;4.20;1.00;;;;;;6283903;22;20218;-82
2022/11/28 01:29:03;;;;;;;22.23;17.73;;;4.20;1.00;;;;;;6289562;22;20207;-81
2022/11/28 01:31:30;;;;;;;25.23;16.70;;;4.20;1.00;;;;;;6287827;22;20244;-82
2022/11/28 01:34:06;;;;;;;27.27;17.00;;;4.20;1.00;;;;;;6287055;22;20209;-80
2022/11/28 01:36:33;;;;;;;20.63;15.25;;;4.20;1.00;;;;;;6286548;22;20218;-79
2022/11/28 01:39:03;;;;;;;21.95;15.05;;;4.20;1.00;;;;;;6287571;22;20190;-79
2022/11/28 01:41:42;;;;;;;22.98;15.65;;;4.20;1.00;;;;;;6287031;22;21017;-80
2022/11/28 01:44:47;;;;;;;25.15;16.73;;;4.10;1.00;;;;;;6285042;22;20213;-81
2022/11/28 01:47:17;;;;;;;24.77;17.15;;;4.00;1.00;;;;;;6283303;22;20196;-81
2022/11/28 01:49:47;;;;;;;20.83;15.10;;;4.00;1.00;;;;;;6284930;22;20205;-82
2022/11/28 01:52:18;;;;;;;23.17;16.02;;;4.00;1.00;;;;;;6290098;22;20305;-82
2022/11/28 01:54:48;;;;;;;23.15;16.58;;;4.00;1.00;;;;;;6245920;22;20305;-82
2022/11/28 01:57:25;;;;;;;23.85;15.40;;;4.00;1.00;;;;;;6291555;22;20218;-83
2022/11/28 02:00:01;;;;;;;22.58;14.60;;;4.00;1.00;;;;;;6290067;22;20211;-83
2022/11/28 02:02:33;;;;;;;22.08;14.65;;;4.00;1.00;;;;;;6285681;22;20301;-79
2022/11/28 02:05:04;;;;;;;20.77;14.75;;;4.10;1.00;;;;;;6286470;22;20214;-79
2022/11/28 02:07:32;;;;;;;21.58;15.98;;;4.20;1.00;;;;;;6284925;22;20896;-79
2022/11/28 02:10:04;;;;;;;23.85;15.35;;;4.10;1.00;;;;;;6287442;22;20217;-84
2022/11/28 02:13:10;;;;;;;22.08;14.63;;;4.10;1.00;;;;;;6288928;22;20237;-83
2022/11/28 02:16:01;;;;;;;22.40;15.77;;;4.20;1.00;;;;;;6275019;22;20213;-82
2022/11/28 02:18:52;;;;;;;19.90;14.38;;;4.10;1.00;;;;;;6284895;22;20877;-81
2022/11/28 02:21:53;;;;;;;20.33;14.68;;;4.20;1.00;;;;;;6286818;22;20270;-83
2022/11/28 02:24:55;;;;;;;22.33;14.43;;;4.30;1.00;;;;;;6291164;22;20218;-79
2022/11/28 02:28:10;;;;;;;21.50;15.00;;;4.20;1.00;;;;;;6277532;22;20267;-83
2022/11/28 02:30:49;;;;;;;22.88;14.48;;;4.10;1.00;;;;;;6292589;22;20217;-83
2022/11/28 02:33:31;;;;;;;19.25;14.13;;;4.20;1.00;;;;;;6292686;22;20218;-79
2022/11/28 02:36:09;;;;;;;22.42;15.00;;;4.10;1.00;;;;;;6291208;22;20229;-81
2022/11/28 02:38:54;;;;;;;23.60;15.90;;;4.00;1.00;;;;;;6288599;22;20224;-83
2022/11/28 02:41:31;;;;;;;25.55;15.50;;;4.00;1.00;;;;;;6294385;22;20206;-81
2022/11/28 02:44:09;;;;;;;23.77;14.13;;;4.00;1.00;;;;;;6290719;22;20297;-79
2022/11/28 02:46:49;;;;;;;20.83;14.52;;;4.00;1.00;;;;;;6292398;22;20219;-80
2022/11/28 02:49:23;;;;;;;23.10;15.07;;;4.10;1.00;;;;;;6291267;22;20211;-78
2022/11/28 02:51:58;;;;;;;21.65;14.13;;;4.10;1.00;;;;;;6288709;22;20238;-81
2022/11/28 02:54:31;;;;;;;23.33;15.73;;;4.10;1.00;;;;;;6290409;22;21022;-84
2022/11/28 02:56:59;;;;;;;21.88;15.15;;;4.10;1.00;;;;;;6291624;22;20251;-81
2022/11/28 02:59:33;;;;;;;24.73;14.40;;;4.10;1.00;;;;;;6293754;22;20229;-81
2022/11/28 03:02:01;;;;;;;22.55;16.70;;;4.10;1.00;;;;;;6293412;22;20260;-82
2022/11/28 03:04:42;;;;;;;23.08;16.55;;;4.10;1.00;;;;;;6292861;22;20234;-82
2022/11/28 03:07:16;;;;;;;22.35;14.85;;;4.00;1.00;;;;;;6292340;22;20205;-81
2022/11/28 03:10:04;;;;;;;25.45;17.00;;;4.00;1.00;;;;;;6287130;22;20213;-80
2022/11/28 03:12:42;;;;;;;25.33;17.20;;;4.00;1.00;;;;;;6287847;22;20210;-81
2022/11/28 03:15:12;;;;;;;22.70;15.48;;;3.90;1.00;;;;;;6287898;22;20205;-79
2022/11/28 03:17:50;;;;;;;26.80;16.73;;;3.90;1.00;;;;;;6292961;22;20218;-80
2022/11/28 03:20:38;;;;;;;23.40;16.58;;;3.90;1.00;;;;;;6274961;22;20210;-79
2022/11/28 03:23:18;;;;;;;26.70;17.27;;;3.80;1.00;;;;;;6277640;22;20289;-82
2022/11/28 03:25:59;;;;;;;23.80;15.88;;;3.80;1.00;;;;;;6276105;22;20205;-82
2022/11/28 03:28:32;;;;;;;25.92;17.13;;;3.80;1.00;;;;;;6292040;22;20256;-83
2022/11/28 03:31:06;;;;;;;24.90;16.35;;;3.80;1.00;;;;;;6292073;22;20220;-80
2022/11/28 03:33:42;;;;;;;26.38;17.73;;;3.80;1.00;;;;;;6274559;22;20212;-79
2022/11/28 03:36:19;;;;;;;27.33;16.17;;;3.80;1.00;;;;;;6275569;22;20214;-79
2022/11/28 03:39:00;;;;;;;24.40;15.68;;;3.90;1.00;;;;;;6247600;22;20214;-80
2022/11/28 03:41:33;;;;;;;32.10;17.90;;;3.90;1.00;;;;;;6268911;22;20218;-81
2022/11/28 03:44:03;;;;;;;27.23;17.50;;;3.90;1.00;;;;;;6279410;22;20237;-81
2022/11/28 03:46:41;;;;;;;26.48;18.35;;;3.90;1.00;;;;;;6277614;22;20242;-80
2022/11/28 03:49:10;;;;;;;28.98;19.48;;;3.90;1.00;;;;;;6286350;22;20213;-78
2022/11/28 03:51:51;;;;;;;22.33;15.32;;;3.90;1.00;;;;;;6284312;22;20249;-80
2022/11/28 03:54:27;;;;;;;25.70;16.30;;;4.00;1.00;;;;;;6289370;22;20241;-82
2022/11/28 03:57:06;;;;;;;29.40;18.00;;;3.90;1.00;;;;;;6293271;22;20212;-83
2022/11/28 03:59:37;;;;;;;27.10;16.88;;;4.00;1.00;;;;;;6291137;22;20218;-80
2022/11/28 04:02:14;;;;;;;30.55;18.75;;;4.00;1.00;;;;;;6290170;22;20237;-80
2022/11/28 04:04:57;;;;;;;28.33;17.45;;;3.90;1.00;;;;;;6290672;22;20248;-80
2022/11/28 04:07:34;;;;;;;31.38;18.42;;;3.90;1.00;;;;;;6279864;22;20613;-79
2022/11/28 04:10:15;;;;;;;25.90;17.65;;;3.90;1.00;;;;;;6292250;22;20659;-80
2022/11/28 04:12:54;;;;;;;27.10;16.75;;;3.90;1.00;;;;;;6290699;22;20659;-81
2022/11/28 04:15:30;;;;;;;27.20;17.88;;;3.80;1.00;;;;;;6291926;22;20224;-82
2022/11/28 04:18:09;;;;;;;31.48;19.30;;;3.80;1.00;;;;;;6292085;22;20762;-79
2022/11/28 04:20:42;;;;;;;24.65;17.55;;;3.80;1.00;;;;;;6259704;22;20221;-81
2022/11/28 04:23:16;;;;;;;35.22;18.98;;;3.80;1.00;;;;;;6264384;22;20199;-81
2022/11/28 04:25:52;;;;;;;25.13;17.92;;;3.70;1.00;;;;;;6264844;22;20221;-79
2022/11/28 04:28:31;;;;;;;29.40;19.15;;;3.70;1.00;;;;;;6259756;22;20215;-81
2022/11/28 04:31:02;;;;;;;28.17;17.80;;;3.70;1.00;;;;;;6263334;22;20924;-82
2022/11/28 04:33:35;;;;;;;29.17;17.90;;;3.70;1.00;;;;;;6260135;22;20238;-81
2022/11/28 04:36:03;;;;;;;28.45;18.50;;;3.70;1.00;;;;;;6261630;22;20220;-80
2022/11/28 04:38:34;;;;;;;28.35;18.48;;;3.70;1.00;;;;;;6261007;22;20225;-80
2022/11/28 04:41:13;;;;;;;28.15;17.95;;;3.70;1.00;;;;;;6262481;22;20333;-81
2022/11/28 04:43:43;;;;;;;26.55;17.65;;;3.80;1.00;;;;;;6246524;22;20705;-84
2022/11/28 04:46:15;;;;;;;29.08;17.80;;;3.70;1.00;;;;;;6261285;22;20225;-81
2022/11/28 04:48:43;;;;;;;24.60;16.98;;;3.80;1.00;;;;;;6258337;22;20224;-80
2022/11/28 04:51:19;;;;;;;28.20;17.88;;;3.80;1.00;;;;;;6262970;22;20206;-84
2022/11/28 04:53:58;;;;;;;27.40;18.60;;;3.80;1.00;;;;;;6259222;22;20217;-81
2022/11/28 04:56:33;;;;;;;30.38;19.95;;;3.90;1.00;;;;;;6257812;22;20223;-79
2022/11/28 04:59:01;;;;;;;26.45;18.40;;;3.90;1.00;;;;;;6257580;22;20220;-78
2022/11/28 05:01:32;;;;;;;27.80;17.10;;;3.90;1.00;;;;;;6257574;22;20219;-81
2022/11/28 05:04:03;;;;;;;28.85;18.52;;;3.80;1.00;;;;;;6257002;22;20212;-80
2022/11/28 05:06:33;;;;;;;28.48;16.85;;;3.90;1.00;;;;;;6239875;22;20218;-80
2022/11/28 05:09:02;;;;;;;27.27;18.35;;;3.90;1.00;;;;;;6227601;22;20215;-81
2022/11/28 05:11:30;;;;;;;27.33;17.02;;;3.90;1.00;;;;;;6250463;22;20218;-80
2022/11/28 05:14:00;;;;;;;28.13;17.13;;;3.90;1.00;;;;;;6257569;22;20273;-81
2022/11/28 05:16:27;;;;;;;28.17;17.80;;;3.90;1.00;;;;;;6252644;22;20264;-80
2022/11/28 05:18:56;;;;;;;27.50;20.35;;;3.90;1.00;;;;;;6228172;22;20297;-81
2022/11/28 05:21:25;;;;;;;28.98;17.75;;;3.90;1.00;;;;;;6254232;22;20212;-81
2022/11/28 05:23:53;;;;;;;25.50;16.73;;;3.90;1.00;;;;;;6234073;22;20307;-80
2022/11/28 05:26:25;;;;;;;31.73;19.13;;;3.90;1.00;;;;;;6223592;22;20206;-85
2022/11/28 05:28:52;;;;;;;26.80;17.95;;;4.00;1.00;;;;;;6264167;22;20212;-86
2022/11/28 05:31:22;;;;;;;30.15;18.00;;;4.00;1.00;;;;;;6247164;22;20207;-86
2022/11/28 05:33:49;;;;;;;26.63;15.98;;;4.00;1.00;;;;;;6231517;22;20219;-78
2022/11/28 05:36:21;;;;;;;29.35;19.15;;;4.00;1.00;;;;;;6242829;22;20224;-82
2022/11/28 05:38:49;;;;;;;28.33;18.50;;;4.00;1.00;;;;;;6237263;22;20225;-80
2022/11/28 05:41:22;;;;;;;30.13;18.48;;;4.10;1.00;;;;;;6247121;22;20206;-82
2022/11/28 05:43:51;;;;;;;29.88;19.42;;;4.10;1.00;;;;;;6256618;22;20442;-81
2022/11/28 05:46:20;;;;;;;28.52;17.92;;;4.10;1.00;;;;;;6255622;22;20221;-81
2022/11/28 05:48:48;;;;;;;28.73;17.67;;;4.10;1.00;;;;;;6245293;22;20237;-78
2022/11/28 05:51:15;;;;;;;25.38;16.73;;;4.10;1.00;;;;;;6257446;22;20328;-78
2022/11/28 05:53:43;;;;;;;24.83;18.25;;;4.10;1.00;;;;;;6257124;22;20234;-77
2022/11/28 05:56:13;;;;;;;25.35;18.40;;;4.10;1.00;;;;;;6259131;22;20221;-78
2022/11/28 05:58:41;;;;;;;30.52;19.77;;;4.10;1.00;;;;;;6241151;22;20655;-80
2022/11/28 06:01:20;;;;;;;26.08;18.13;;;4.00;1.00;;;;;;6261832;22;20210;-80
2022/11/28 06:03:47;;;;;;;27.15;18.33;;;4.00;1.00;;;;;;6246625;22;20238;-77
2022/11/28 06:06:23;;;;;;;28.80;19.55;;;4.00;1.00;;;;;;6242163;22;20214;-88
2022/11/28 06:08:53;;;;;;;30.63;18.08;;;4.00;1.00;;;;;;6265207;22;20224;-87
2022/11/28 06:11:31;;;;;;;29.48;19.70;;;4.00;1.00;;;;;;6258082;22;20202;-82
2022/11/28 06:14:10;;;;;;;31.90;20.75;;;4.00;1.00;;;;;;6264259;22;20194;-80
2022/11/28 06:16:44;;;;;;;27.10;18.48;;;4.00;1.00;;;;;;6251229;22;20275;-83
2022/11/28 06:19:12;;;;;;;32.60;19.17;;;3.90;1.00;;;;;;6250914;22;20304;-78
2022/11/28 06:21:42;;;;;;;32.50;19.25;;;3.90;1.00;;;;;;6250210;22;20269;-79
2022/11/28 06:24:10;;;;;;;30.85;18.77;;;3.90;1.00;;;;;;6260776;22;20214;-78
2022/11/28 06:26:42;;;;;;;28.80;18.85;;;3.90;1.00;;;;;;6264970;22;20214;-80
2022/11/28 06:29:09;;;;;;;31.70;20.08;;;3.90;1.00;;;;;;6268127;22;20258;-83
2022/11/28 06:31:42;;;;;;;29.52;19.00;;;3.90;1.00;;;;;;6265225;22;20256;-86
2022/11/28 06:34:14;;;;;;;31.70;19.13;;;4.00;1.00;;;;;;6268712;22;20283;-85
2022/11/28 06:36:44;;;;;;;33.63;20.08;;;4.30;1.00;;;;;;6269397;22;20216;-87
2022/11/28 06:39:15;;;;;;;32.47;18.73;;;4.30;1.00;;;;;;6265586;22;20203;-81
2022/11/28 06:41:45;;;;;;;32.85;19.23;;;4.20;1.00;;;;;;6258068;22;20222;-78
2022/11/28 06:44:15;;;;;;;30.20;17.85;;;4.20;1.00;;;;;;6262574;22;20238;-82
2022/11/28 06:46:43;;;;;;;29.65;19.33;;;4.20;1.00;;;;;;6262445;22;20226;-78
2022/11/28 06:49:12;;;;;;;32.13;20.60;;;4.10;1.00;;;;;;6262415;22;20214;-80
2022/11/28 06:51:44;;;;;;;31.35;20.15;;;4.10;1.00;;;;;;6261584;22;20203;-78
2022/11/28 06:54:12;;;;;;;30.73;19.25;;;4.00;1.00;;;;;;6224131;22;20293;-80
2022/11/28 06:56:42;;;;;;;26.45;19.08;;;4.10;1.00;;;;;;6247050;22;20232;-83
2022/11/28 06:59:12;;;;;;;30.98;19.65;;;4.10;1.00;;;;;;6264339;22;20969;-81
2022/11/28 07:01:44;;;;;;;35.90;20.00;;;4.10;1.00;;;;;;6244435;22;20198;-80
2022/11/28 07:04:14;;;;;;;31.42;20.05;;;4.00;1.00;;;;;;6241359;22;20237;-78
2022/11/28 07:06:43;;;;;;;32.47;18.73;;;4.00;1.00;;;;;;6252712;22;20238;-76
2022/11/28 07:09:11;;;;;;;32.88;19.20;;;4.00;1.00;;;;;;6251073;22;20218;-77
2022/11/28 07:11:45;;;;;;;32.55;22.55;;;3.90;1.00;;;;;;6248891;22;20418;-78
2022/11/28 07:14:13;;;;;;;28.67;20.17;;;3.90;1.00;;;;;;6252615;22;20239;-78
2022/11/28 07:16:47;;;;;;;27.58;18.30;;;4.00;1.00;;;;;;6221840;22;20625;-78
2022/11/28 07:19:21;;;;;;;29.55;19.55;;;4.00;1.00;;;;;;6252018;22;20209;-78
2022/11/28 07:21:48;;;;;;;28.17;21.15;;;4.00;1.00;;;;;;6250058;22;21090;-78
2022/11/28 07:24:15;;;;;;;28.75;18.65;;;4.00;1.00;;;;;;6248595;22;20943;-79
2022/11/28 07:26:45;;;;;;;28.15;19.88;;;4.00;1.00;;;;;;6242783;22;20670;-80
2022/11/28 07:29:15;;;;;;;29.13;20.48;;;4.00;1.00;;;;;;6253439;22;20211;-79
2022/11/28 07:31:44;;;;;;;27.17;19.30;;;3.90;1.00;;;;;;6252057;22;20212;-78
2022/11/28 07:34:12;;;;;;;28.50;18.05;;;4.00;1.00;;;;;;6234682;22;20211;-80
2022/11/28 07:36:43;;;;;;;30.15;17.90;;;4.00;1.00;;;;;;6253046;22;20225;-79
2022/11/28 07:39:18;;;;;;;31.27;20.58;;;3.90;1.00;;;;;;6257875;22;20218;-80
2022/11/28 07:41:48;;;;;;;31.67;19.58;;;3.80;1.00;;;;;;6243101;22;20296;-79
2022/11/28 07:44:25;;;;;;;30.17;19.30;;;3.80;1.00;;;;;;6256720;22;20215;-76
2022/11/28 07:46:54;;;;;;;28.67;18.92;;;3.80;1.00;;;;;;6254878;22;20212;-80
2022/11/28 07:49:24;;;;;;;32.85;20.25;;;3.90;1.00;;;;;;6257174;22;20214;-80
2022/11/28 07:51:53;;;;;;;28.85;18.58;;;3.90;1.00;;;;;;6259422;22;20218;-77
2022/11/28 07:54:22;;;;;;;33.35;19.05;;;3.90;1.00;;;;;;6257611;22;20209;-76
2022/11/28 07:56:51;;;;;;;30.58;20.33;;;3.90;1.00;;;;;;6256915;22;20297;-76
2022/11/28 07:59:22;;;;;;;33.00;18.70;;;4.00;1.00;;;;;;6256749;22;20252;-79
2022/11/28 08:01:49;;;;;;;29.73;19.13;;;4.00;1.00;;;;;;6254878;22;20238;-79
2022/11/28 08:04:21;;;;;;;30.77;20.48;;;4.10;1.00;;;;;;6256169;22;20217;-78
2022/11/28 08:06:48;;;;;;;32.53;19.77;;;4.20;1.00;;;;;;6254376;22;20616;-77
2022/11/28 08:09:26;;;;;;;31.67;18.92;;;4.20;1.00;;;;;;6250509;22;20277;-77
2022/11/28 08:11:54;;;;;;;34.33;20.17;;;4.20;1.00;;;;;;6254887;22;20268;-79
2022/11/28 08:14:21;;;;;;;28.02;17.85;;;4.20;1.00;;;;;;6251711;22;20222;-79
2022/11/28 08:16:50;;;;;;;33.42;19.95;;;4.30;1.00;;;;;;6249313;22;20997;-79
2022/11/28 08:19:17;;;;;;;28.90;19.08;;;4.30;1.00;;;;;;6249808;22;20216;-78
2022/11/28 08:21:45;;;;;;;33.28;19.90;;;4.30;1.00;;;;;;6234889;22;20648;-79
2022/11/28 08:24:12;;;;;;;31.55;19.45;;;4.30;1.00;;;;;;6234412;22;20198;-78
2022/11/28 08:26:45;;;;;;;27.00;18.27;;;4.40;1.00;;;;;;6254584;22;20221;-78
2022/11/28 08:29:14;;;;;;;29.38;20.15;;;4.50;1.00;;;;;;6256418;22;20215;-76
2022/11/28 08:31:44;;;;;;;28.55;19.83;;;4.50;1.00;;;;;;6254393;22;20201;-81
2022/11/28 08:34:12;;;;;;;34.17;20.17;;;4.60;1.00;;;;;;6249655;22;20217;-78
2022/11/28 08:36:40;;;;;;;31.63;19.33;;;4.50;1.00;;;;;;6233349;22;20225;-78
2022/11/28 08:39:07;;;;;;;29.85;20.35;;;4.50;1.00;;;;;;6246922;22;20227;-79
2022/11/28 08:41:36;;;;;;;29.63;21.05;;;4.50;1.00;;;;;;6247954;22;20215;-79
2022/11/28 08:44:08;;;;;;;30.27;19.52;;;4.60;1.00;;;;;;6252027;22;20221;-77
2022/11/28 08:46:35;;;;;;;30.08;19.02;;;4.70;1.00;;;;;;6256996;22;20211;-80
2022/11/28 08:49:02;;;;;;;32.88;20.30;;;4.80;1.00;;;;;;6256072;22;21032;-78
2022/11/28 08:51:37;;;;;;;28.42;17.27;;;4.90;1.00;;;;;;6250001;22;20202;-80
2022/11/28 08:54:04;;;;;;;30.98;19.13;;;5.00;1.00;;;;;;6250916;22;20683;-81
2022/11/28 08:56:34;;;;;;;25.58;18.17;;;5.10;1.00;;;;;;6256920;22;20202;-78
2022/11/28 08:59:01;;;;;;;29.00;18.02;;;5.10;1.00;;;;;;6248046;22;21029;-80
2022/11/28 09:01:39;;;;;;;31.55;19.10;;;5.10;1.00;;;;;;6250763;22;20215;-80
2022/11/28 09:04:06;;;;;;;27.23;17.90;;;5.20;1.00;;;;;;6250418;22;20207;-79
2022/11/28 09:06:35;;;;;;;31.45;18.65;;;5.10;1.00;;;;;;6251808;22;20221;-81
2022/11/28 09:09:03;;;;;;;38.85;21.48;;;5.10;1.00;;;;;;6252372;22;20211;-78
2022/11/28 09:11:34;;;;;;;32.15;19.17;;;5.20;1.00;;;;;;6252389;22;20223;-77
2022/11/28 09:14:03;;;;;;;29.02;19.55;;;5.40;1.00;;;;;;6254087;22;20937;-77
2022/11/28 09:16:33;;;;;;;32.38;17.38;;;5.40;1.00;;;;;;6239818;22;20238;-77
2022/11/28 09:19:02;;;;;;;29.00;18.50;;;5.40;1.00;;;;;;6254041;22;20225;-79
2022/11/28 09:21:31;;;;;;;29.50;19.20;;;5.40;1.00;;;;;;6249871;22;20219;-78
2022/11/28 09:24:00;;;;;;;29.17;19.75;;;5.30;1.00;;;;;;6236840;22;20213;-78
2022/11/28 09:26:28;;;;;;;47.28;27.20;;;5.20;1.00;;;;;;6245190;22;21037;-76
2022/11/28 09:29:03;;;;;;;30.10;18.52;;;5.20;1.00;;;;;;6251555;22;20249;-79
2022/11/28 09:31:34;;;;;;;28.92;18.20;;;5.30;1.00;;;;;;6248759;22;20240;-78
2022/11/28 09:34:02;;;;;;;27.08;18.05;;;5.40;1.00;;;;;;6251864;22;20217;-80
2022/11/28 09:36:30;;;;;;;35.00;17.40;;;5.40;1.00;;;;;;6252717;22;20242;-81
2022/11/28 09:39:00;;;;;;;32.45;20.38;;;5.50;1.00;;;;;;6241949;22;21022;-81
2022/11/28 09:42:01;;;;;;;30.08;18.88;;;5.60;1.00;;;;;;6250999;22;20227;-78
2022/11/28 09:44:37;;;;;;;32.97;20.73;;;5.60;1.00;;;;;;6246570;22;20241;-79
2022/11/28 09:47:13;;;;;;;31.75;20.17;;;5.70;1.00;;;;;;6237259;22;20962;-78
2022/11/28 09:49:46;;;;;;;29.02;18.00;;;5.80;1.00;;;;;;6250508;22;20272;-81
2022/11/28 09:52:26;;;;;;;27.75;18.90;;;5.70;1.00;;;;;;6237840;22;20219;-79
2022/11/28 09:55:03;;;;;;;36.63;20.00;;;5.60;1.00;;;;;;6255894;22;20208;-82
2022/11/28 09:57:37;;;;;;;28.75;18.85;;;5.70;1.00;;;;;;6237151;22;20932;-79
2022/11/28 10:00:11;;;;;;;28.58;17.83;;;5.70;1.00;;;;;;6253052;22;20215;-82
2022/11/28 10:02:51;;;;;;;30.65;21.05;;;5.90;1.00;;;;;;6255250;22;20214;-80
2022/11/28 10:08:31;;;;;;;30.77;18.65;;;6.10;1.00;;;;;;6254657;22;20211;-80
2022/11/28 10:11:04;;;;;;;30.25;19.33;;;6.20;1.00;;;;;;6257362;22;20324;-77
2022/11/28 10:13:44;;;;;;;29.50;18.58;;;6.10;1.00;;;;;;6244696;22;20199;-81
2022/11/28 10:16:20;;;;;;;36.28;20.15;;;5.90;1.00;;;;;;6263151;22;20245;-81
2022/11/28 10:19:00;;;;;;;33.88;21.05;;;6.00;1.00;;;;;;6254766;22;20239;-77
2022/11/28 10:21:41;;;;;;;32.17;18.77;;;6.10;1.00;;;;;;6254563;22;20219;-79
2022/11/28 10:24:15;;;;;;;29.77;19.80;;;6.20;1.00;;;;;;6260739;22;20194;-77
2022/11/28 10:26:51;;;;;;;27.83;17.13;;;6.20;1.00;;;;;;6260519;22;20226;-79
2022/11/28 10:29:31;;;;;;;33.30;20.35;;;6.20;1.00;;;;;;6260156;22;20225;-82
2022/11/28 10:32:04;;;;;;;34.03;19.85;;;6.40;1.00;;;;;;6246186;22;20225;-77
2022/11/28 10:34:41;;;;;;;30.40;19.90;;;6.70;1.00;;;;;;6256482;22;20210;-79
2022/11/28 10:37:21;;;;;;;31.15;19.38;;;6.80;1.00;;;;;;6261121;22;20207;-78
2022/11/28 10:39:55;;;;;;;29.15;18.85;;;6.90;1.00;;;;;;6241029;22;20392;-78
2022/11/28 10:42:30;;;;;;;30.67;19.33;;;6.90;1.00;;;;;;6257455;22;20222;-78
2022/11/28 10:45:14;;;;;;;31.13;21.60;;;6.90;1.00;;;;;;6258835;22;20200;-80
2022/11/28 10:48:00;;;;;;;39.17;22.15;;;6.80;1.00;;;;;;6228357;22;20275;-82
2022/11/28 10:50:44;;;;;;;29.90;18.17;;;6.90;1.00;;;;;;6254836;22;20215;-81
2022/11/28 10:53:19;;;;;;;32.05;22.30;;;6.80;1.00;;;;;;6256682;22;20386;-78
2022/11/28 10:56:01;;;;;;;32.03;20.15;;;6.80;1.00;;;;;;6258088;22;20219;-78
2022/11/28 10:58:41;;;;;;;26.40;18.70;;;6.70;1.00;;;;;;6224775;22;20672;-84
2022/11/28 11:01:08;;;;;;;35.58;21.25;;;6.50;1.00;;;;;;6241422;22;20213;-84
2022/11/28 11:03:41;;;;;;;32.40;20.75;;;6.30;1.00;;;;;;6262631;22;20219;-84
2022/11/28 11:06:09;;;;;;;33.83;20.40;;;6.40;1.00;;;;;;6262594;22;20211;-77
2022/11/28 11:08:42;;;;;;;30.63;18.88;;;6.40;1.00;;;;;;6252989;22;20221;-78
2022/11/28 11:11:26;;;;;;;30.38;19.63;;;6.30;1.00;;;;;;6259480;22;21086;-80
2022/11/28 11:14:07;;;;;;;27.83;17.55;;;6.40;1.00;;;;;;6244077;22;20249;-80
2022/11/28 11:16:51;;;;;;;33.70;20.20;;;6.50;1.00;;;;;;6219799;22;20215;-80
2022/11/28 11:19:33;;;;;;;31.30;20.35;;;6.60;1.00;;;;;;6252863;22;20750;-80
2022/11/28 11:22:22;;;;;;;29.65;18.73;;;6.70;1.00;;;;;;6238641;22;20212;-81
2022/11/28 11:25:10;;;;;;;34.00;19.67;;;6.70;1.00;;;;;;6238191;22;20354;-80
2022/11/28 11:27:53;;;;;;;28.95;17.65;;;6.70;1.00;;;;;;6253507;22;20216;-81
2022/11/28 11:30:30;;;;;;;31.23;19.08;;;6.70;1.00;;;;;;6237391;22;20662;-80
2022/11/28 11:33:20;;;;;;;29.92;18.25;;;6.80;1.00;;;;;;6239675;22;20918;-79
2022/11/28 11:35:53;;;;;;;27.67;17.15;;;6.90;1.00;;;;;;6219664;22;20280;-82
2022/11/28 11:38:53;;;;;;;27.63;17.02;;;7.00;1.00;;;;;;6254107;22;20216;-80
2022/11/28 11:41:41;;;;;;;25.25;16.70;;;7.00;1.00;;;;;;6218304;22;20692;-80
2022/11/28 11:44:53;;;;;;;;;;;;;;;;;;;;;
2022/11/28 11:47:43;;;;;;;26.17;17.33;;;7.20;1.00;;;;;;6211493;22;51200;-80
2022/11/28 11:50:17;;;;;;;32.47;18.08;;;7.20;1.00;;;;;;6253723;22;20204;-79
2022/11/28 11:52:44;;;;;;;27.63;17.85;;;7.40;1.00;;;;;;6255933;22;20213;-80
2022/11/28 11:55:15;;;;;;;30.08;18.63;;;7.40;1.00;;;;;;6255792;22;20711;-80
2022/11/28 11:57:48;;;;;;;27.75;17.48;;;7.60;1.00;;;;;;6253461;22;20212;-80
2022/11/28 12:00:18;;;;;;;25.65;16.48;;;7.60;1.00;;;;;;6254841;22;20679;-81
2022/11/28 12:02:50;;;;;;;25.02;16.73;;;7.70;1.00;;;;;;6254402;22;20217;-80
2022/11/28 12:05:30;;;;;;;25.40;16.83;;;7.60;1.00;;;;;;6259353;22;20212;-80
2022/11/28 12:08:14;;;;;;;28.58;18.58;;;7.60;1.00;;;;;;6260201;22;20212;-83
2022/11/28 12:10:48;;;;;;;33.95;18.52;;;7.60;1.00;;;;;;6259142;22;20211;-78
2022/11/28 12:13:25;;;;;;;23.83;16.15;;;7.60;1.00;;;;;;6254756;22;20264;-78
2022/11/28 12:16:07;;;;;;;24.52;15.90;;;7.70;1.00;;;;;;6259098;22;20226;-81
2022/11/28 12:18:47;;;;;;;26.63;17.42;;;7.80;1.00;;;;;;6230816;22;20219;-78
2022/11/28 12:21:28;;;;;;;26.63;16.15;;;7.90;1.00;;;;;;6259454;22;20216;-83
2022/11/28 12:24:09;;;;;;;25.48;15.57;;;8.00;1.00;;;;;;6257759;22;20309;-79
2022/11/28 12:26:44;;;;;;;26.98;16.75;;;7.90;1.00;;;;;;6245357;22;20829;-79
2022/11/28 12:29:43;;;;;;;26.27;16.60;;;7.60;1.00;;;;;;6259695;22;20703;-80
2022/11/28 12:32:33;;;;;;;28.48;17.40;;;7.50;1.00;;;;;;6256566;22;20213;-77
2022/11/28 12:35:14;;;;;;;30.20;16.42;;;7.50;1.00;;;;;;6258689;22;20222;-83
2022/11/28 12:37:59;;;;;;;28.10;18.00;;;7.50;1.00;;;;;;6258916;22;20212;-82
2022/11/28 12:40:40;;;;;;;28.77;17.40;;;7.40;1.00;;;;;;6242956;22;20788;-83
2022/11/28 12:43:27;;;;;;;27.45;16.40;;;7.40;1.00;;;;;;6260892;22;20342;-78
2022/11/28 12:46:05;;;;;;;25.73;16.33;;;7.50;1.00;;;;;;6255207;22;20214;-79
2022/11/28 12:48:42;;;;;;;26.85;17.02;;;7.40;1.00;;;;;;6245039;22;20220;-81
2022/11/28 12:51:22;;;;;;;27.45;17.10;;;7.30;1.00;;;;;;6259335;22;20269;-80
2022/11/28 12:54:22;;;;;;;25.70;17.88;;;7.40;1.00;;;;;;6255683;22;20264;-81
2022/11/28 12:57:07;;;;;;;29.58;19.25;;;7.40;1.00;;;;;;6250890;22;21066;-82
2022/11/28 12:59:47;;;;;;;35.42;20.90;;;7.40;1.00;;;;;;6257652;22;20219;-80
2022/11/28 13:02:29;;;;;;;37.03;24.35;;;7.50;1.00;;;;;;6241351;22;20221;-78
2022/11/28 13:05:21;;;;;;;39.45;23.55;;;7.40;1.00;;;;;;6256728;22;20223;-79
2022/11/28 13:08:10;;;;;;;27.27;21.05;;;7.40;1.00;;;;;;6258769;22;20211;-79
2022/11/28 13:10:50;;;;;;;38.00;22.95;;;7.40;1.00;;;;;;6258155;22;20224;-80
2022/11/28 13:13:27;;;;;;;29.92;21.83;;;7.30;1.00;;;;;;6264659;22;20685;-80
2022/11/28 13:16:07;;;;;;;37.28;21.75;;;7.20;1.00;;;;;;6265672;22;20228;-80
2022/11/28 13:18:45;;;;;;;28.58;21.17;;;7.10;1.00;;;;;;6249605;22;20213;-80
2022/11/28 13:21:26;;;;;;;28.58;20.63;;;7.00;1.00;;;;;;6261279;22;20209;-80
2022/11/28 13:24:04;;;;;;;27.83;18.02;;;7.00;1.00;;;;;;6261223;22;20255;-81
2022/11/28 13:26:41;;;;;;;31.85;20.30;;;7.00;1.00;;;;;;6260716;22;20256;-81
2022/11/28 13:29:26;;;;;;;29.35;19.55;;;7.00;1.00;;;;;;6254635;22;20216;-80